Time;durP1;ratioP1;P1;durP2;ratioP2;P2;SDS_P1;SDS_P2;PMS_P1;PMS_P2;Temp;Humidity;BMP_temperature;BMP_pressure;BME280_temperature;BME280_humidity;BME280_pressure;Samples;Min_cycle;Max_cycle;Signal;HPM_P1;HPM_P2
2021/10/07 00:02:00;;;;;;;4.20;2.45;;;13.80;81.10;;;;;;5080846;28;20092;-72
2021/10/07 00:04:28;;;;;;;4.22;2.63;;;13.80;81.20;;;;;;5083042;28;20040;-72
2021/10/07 00:06:54;;;;;;;4.57;2.72;;;13.70;81.10;;;;;;5076639;28;20063;-72
2021/10/07 00:09:20;;;;;;;4.30;2.83;;;13.70;81.10;;;;;;5084597;28;20063;-72
2021/10/07 00:11:45;;;;;;;4.88;3.13;;;13.70;81.20;;;;;;5080173;28;20028;-72
2021/10/07 00:14:11;;;;;;;4.90;3.08;;;13.70;81.20;;;;;;5091973;28;20028;-72
2021/10/07 00:16:36;;;;;;;6.60;3.22;;;13.60;81.10;;;;;;5085014;28;20040;-72
2021/10/07 00:19:03;;;;;;;3.65;2.45;;;13.70;81.30;;;;;;5083588;28;20042;-72
2021/10/07 00:21:29;;;;;;;5.43;2.15;;;13.60;80.80;;;;;;5090378;28;20027;-72
2021/10/07 00:26:20;;;;;;;3.17;2.53;;;13.50;80.70;;;;;;5089286;28;20483;-72
2021/10/07 00:28:46;;;;;;;12.95;3.15;;;13.50;80.80;;;;;;5082765;28;20055;-73
2021/10/07 00:31:18;;;;;;;26.45;3.80;;;13.50;80.90;;;;;;5085997;28;20024;-72
2021/10/07 00:33:59;;;;;;;53.33;4.65;;;13.50;80.80;;;;;;5075214;28;20054;-73
2021/10/07 00:36:39;;;;;;;173.20;5.80;;;13.50;80.80;;;;;;5077186;28;20123;-72
2021/10/07 00:39:05;;;;;;;85.32;5.45;;;13.50;80.80;;;;;;5078714;28;20036;-72
2021/10/07 00:41:32;;;;;;;178.15;7.63;;;13.50;80.90;;;;;;5076694;28;20039;-72
2021/10/07 00:44:05;;;;;;;265.38;9.23;;;13.40;81.40;;;;;;5088383;28;20059;-72
2021/10/07 00:46:32;;;;;;;195.68;7.32;;;13.40;81.70;;;;;;5079392;28;20067;-72
2021/10/07 00:48:59;;;;;;;232.05;6.38;;;13.40;82.20;;;;;;5078675;28;20035;-73
2021/10/07 00:51:28;;;;;;;134.65;5.28;;;13.40;82.30;;;;;;5090031;28;20039;-72
2021/10/07 00:53:53;;;;;;;90.88;4.30;;;13.40;82.70;;;;;;5087336;28;20020;-72
2021/10/07 00:56:19;;;;;;;141.90;4.40;;;13.40;83.10;;;;;;5073742;28;20491;-73
2021/10/07 00:58:45;;;;;;;144.88;4.75;;;13.30;83.10;;;;;;5082145;28;20024;-73
2021/10/07 01:01:11;;;;;;;269.52;6.60;;;13.30;83.20;;;;;;5089905;28;20093;-72
2021/10/07 01:03:37;;;;;;;284.15;6.53;;;13.30;83.30;;;;;;5090680;28;20353;-72
2021/10/07 01:06:02;;;;;;;153.88;4.38;;;13.30;83.60;;;;;;5087723;28;20045;-72
2021/10/07 01:08:28;;;;;;;159.13;4.72;;;13.30;83.80;;;;;;5091163;28;20050;-72
2021/10/07 01:10:54;;;;;;;166.50;5.35;;;13.30;84.10;;;;;;5088998;28;20028;-72
2021/10/07 01:13:20;;;;;;;142.65;4.22;;;13.30;84.40;;;;;;5078926;28;20032;-72
2021/10/07 01:15:45;;;;;;;129.02;4.22;;;13.30;84.60;;;;;;5090124;28;20451;-72
2021/10/07 01:18:12;;;;;;;246.52;8.82;;;13.30;84.70;;;;;;5089946;28;20437;-72
2021/10/07 01:20:38;;;;;;;108.88;4.78;;;13.30;84.90;;;;;;5079187;28;20028;-72
2021/10/07 01:23:04;;;;;;;114.90;5.85;;;13.30;85.10;;;;;;5090518;28;20491;-72
2021/10/07 01:25:33;;;;;;;95.78;4.60;;;13.30;85.30;;;;;;5095187;28;20071;-72
2021/10/07 01:27:59;;;;;;;94.25;5.05;;;13.20;85.50;;;;;;5092112;28;20471;-72
2021/10/07 01:30:28;;;;;;;134.13;6.00;;;13.20;85.60;;;;;;5076867;28;20037;-72
2021/10/07 01:32:57;;;;;;;181.13;7.40;;;13.30;85.80;;;;;;5080145;28;20287;-72
2021/10/07 01:35:23;;;;;;;195.70;7.05;;;13.20;86.00;;;;;;5078113;28;20025;-72
2021/10/07 01:37:49;;;;;;;189.82;6.40;;;13.30;86.10;;;;;;5088969;28;20038;-72
2021/10/07 01:40:14;;;;;;;218.23;8.65;;;13.30;86.20;;;;;;5089745;28;20048;-72
2021/10/07 01:42:42;;;;;;;81.25;5.75;;;13.30;86.30;;;;;;5093476;28;20103;-72
2021/10/07 01:45:11;;;;;;;216.95;6.45;;;13.40;86.50;;;;;;5091370;28;20044;-72
2021/10/07 01:47:37;;;;;;;176.20;6.22;;;13.40;86.60;;;;;;5082081;28;20533;-72
2021/10/07 01:50:05;;;;;;;167.75;6.15;;;13.40;86.60;;;;;;5089798;28;20035;-72
2021/10/07 01:52:30;;;;;;;72.50;4.35;;;13.40;86.80;;;;;;5092149;28;20458;-72
2021/10/07 01:54:56;;;;;;;33.70;3.28;;;13.50;87.00;;;;;;5091272;28;20039;-72
2021/10/07 01:57:22;;;;;;;32.35;2.88;;;13.50;87.00;;;;;;5081137;28;20070;-72
2021/10/07 01:59:47;;;;;;;115.97;6.28;;;13.40;86.80;;;;;;5082342;28;20024;-72
2021/10/07 02:02:13;;;;;;;68.00;4.57;;;13.50;87.50;;;;;;5080413;28;20028;-72
2021/10/07 02:04:39;;;;;;;115.93;4.78;;;13.50;87.00;;;;;;5083888;28;20472;-72
2021/10/07 02:07:04;;;;;;;81.38;4.20;;;13.50;87.00;;;;;;5090320;28;20028;-72
2021/10/07 02:09:30;;;;;;;98.68;6.15;;;13.50;87.20;;;;;;5085099;28;20032;-72
2021/10/07 02:11:55;;;;;;;130.77;6.00;;;13.50;87.40;;;;;;5080263;28;20039;-73
2021/10/07 02:14:22;;;;;;;104.70;5.78;;;13.50;87.50;;;;;;5082621;28;20044;-72
2021/10/07 02:16:47;;;;;;;166.25;7.68;;;13.50;87.60;;;;;;5077930;28;20028;-74
2021/10/07 02:19:13;;;;;;;245.77;8.18;;;13.60;87.80;;;;;;5082477;28;20036;-73
2021/10/07 02:21:39;;;;;;;225.77;8.60;;;13.50;88.00;;;;;;5094407;28;20031;-74
2021/10/07 02:24:04;;;;;;;289.88;10.90;;;13.50;88.20;;;;;;5080395;28;20055;-71
2021/10/07 02:26:30;;;;;;;182.32;9.40;;;13.60;88.50;;;;;;5088564;28;20058;-72
2021/10/07 02:28:56;;;;;;;328.50;11.00;;;13.50;88.60;;;;;;5076716;28;20478;-71
2021/10/07 02:31:22;;;;;;;218.25;10.30;;;13.60;88.80;;;;;;5086071;28;20024;-72
2021/10/07 02:33:49;;;;;;;245.40;9.65;;;13.60;89.00;;;;;;5081652;28;20042;-71
2021/10/07 02:36:15;;;;;;;236.13;9.15;;;13.60;89.10;;;;;;5091569;28;20036;-71
2021/10/07 02:38:42;;;;;;;243.20;10.35;;;13.50;89.00;;;;;;5081536;28;20051;-71
2021/10/07 02:41:10;;;;;;;409.15;13.25;;;13.60;89.20;;;;;;5093519;28;20108;-71
2021/10/07 02:43:36;;;;;;;363.75;14.13;;;13.60;89.30;;;;;;5090785;28;20093;-71
2021/10/07 02:46:02;;;;;;;212.50;9.77;;;13.60;89.30;;;;;;5093561;28;20036;-71
2021/10/07 02:48:28;;;;;;;367.77;11.38;;;13.60;89.40;;;;;;5090178;28;20103;-72
2021/10/07 02:50:53;;;;;;;323.17;13.02;;;13.60;89.50;;;;;;5076873;28;20123;-71
2021/10/07 02:53:20;;;;;;;174.45;9.00;;;13.60;89.60;;;;;;5079539;28;20085;-71
2021/10/07 02:55:46;;;;;;;169.15;7.07;;;13.60;89.70;;;;;;5076975;28;20033;-72
2021/10/07 02:58:12;;;;;;;174.38;8.73;;;13.60;89.70;;;;;;5092866;28;20016;-71
2021/10/07 03:00:37;;;;;;;170.35;9.05;;;13.60;89.80;;;;;;5092339;28;20036;-71
2021/10/07 03:03:03;;;;;;;226.88;9.27;;;13.60;89.70;;;;;;5089503;28;20028;-72
2021/10/07 03:05:29;;;;;;;122.60;6.97;;;13.60;89.70;;;;;;5082607;28;20028;-71
2021/10/07 03:07:54;;;;;;;168.80;9.45;;;13.70;89.70;;;;;;5088333;28;20024;-71
2021/10/07 03:10:20;;;;;;;104.05;7.18;;;13.60;89.60;;;;;;5087171;28;20032;-71
2021/10/07 03:12:48;;;;;;;151.95;8.63;;;13.70;89.70;;;;;;5074044;28;20024;-71
2021/10/07 03:15:20;;;;;;;260.92;9.90;;;13.70;89.70;;;;;;5087196;28;20036;-71
2021/10/07 03:17:46;;;;;;;115.47;7.25;;;13.70;89.70;;;;;;5078059;28;20024;-71
2021/10/07 03:20:12;;;;;;;158.60;8.73;;;13.70;89.70;;;;;;5086911;28;20391;-72
2021/10/07 03:22:38;;;;;;;118.35;8.65;;;13.70;89.80;;;;;;5090795;28;20034;-71
2021/10/07 03:25:04;;;;;;;143.98;10.00;;;13.70;89.80;;;;;;5090616;28;20398;-72
2021/10/07 03:27:30;;;;;;;369.35;11.30;;;13.60;89.80;;;;;;5088402;28;20033;-72
2021/10/07 03:30:00;;;;;;;255.13;11.00;;;13.60;89.90;;;;;;5091939;28;20062;-71
2021/10/07 03:32:25;;;;;;;148.70;7.40;;;13.70;89.90;;;;;;5087082;28;20048;-71
2021/10/07 03:34:51;;;;;;;275.13;10.07;;;13.60;89.80;;;;;;5077962;28;20031;-70
2021/10/07 03:37:17;;;;;;;290.20;9.68;;;13.60;89.90;;;;;;5082926;28;20028;-71
2021/10/07 03:39:42;;;;;;;211.35;9.07;;;13.70;90.00;;;;;;5074736;28;20052;-71
2021/10/07 03:42:09;;;;;;;258.98;8.57;;;13.70;90.00;;;;;;5084776;28;20036;-71
2021/10/07 03:44:35;;;;;;;212.25;8.48;;;13.70;90.00;;;;;;5079873;28;20126;-72
2021/10/07 03:47:01;;;;;;;233.38;9.18;;;13.60;90.00;;;;;;5083286;28;20391;-71
2021/10/07 03:49:27;;;;;;;249.68;9.10;;;13.60;90.00;;;;;;5085820;28;20020;-72
2021/10/07 03:51:52;;;;;;;185.63;9.35;;;13.60;90.00;;;;;;5091503;28;20093;-71
2021/10/07 03:54:18;;;;;;;213.07;10.27;;;13.60;90.00;;;;;;5083800;28;20097;-71
2021/10/07 03:56:44;;;;;;;206.23;9.10;;;13.70;90.00;;;;;;5074186;28;20194;-71
2021/10/07 03:59:10;;;;;;;111.43;9.90;;;13.70;90.00;;;;;;5081530;28;20021;-71
2021/10/07 04:01:36;;;;;;;94.30;6.93;;;13.60;90.00;;;;;;5090129;28;20024;-71
2021/10/07 04:04:02;;;;;;;135.77;10.05;;;13.60;90.00;;;;;;5090555;28;20090;-71
2021/10/07 04:06:27;;;;;;;90.13;7.07;;;13.60;89.90;;;;;;5088811;28;20052;-72
2021/10/07 04:08:53;;;;;;;142.45;7.80;;;13.60;89.90;;;;;;5092292;28;20028;-72
2021/10/07 04:11:20;;;;;;;201.68;9.60;;;13.60;89.80;;;;;;5078433;28;20031;-71
2021/10/07 04:13:47;;;;;;;156.38;9.63;;;13.70;89.90;;;;;;5092919;28;20052;-72
2021/10/07 04:16:13;;;;;;;117.95;7.55;;;13.70;90.00;;;;;;5079376;28;20052;-73
2021/10/07 04:18:40;;;;;;;257.45;10.95;;;13.60;89.90;;;;;;5077549;28;20024;-73
2021/10/07 04:21:06;;;;;;;177.23;9.68;;;13.60;89.80;;;;;;5077343;28;20032;-73
2021/10/07 04:23:32;;;;;;;243.18;10.10;;;13.60;89.80;;;;;;5071805;28;20035;-73
2021/10/07 04:25:58;;;;;;;163.02;7.97;;;13.60;89.90;;;;;;5079106;28;20177;-72
2021/10/07 04:28:26;;;;;;;217.85;9.38;;;13.70;89.90;;;;;;5073036;28;20103;-72
2021/10/07 04:30:52;;;;;;;217.13;10.00;;;13.60;89.70;;;;;;5073664;28;20042;-73
2021/10/07 04:33:18;;;;;;;252.05;9.63;;;13.70;89.70;;;;;;5075930;28;20032;-72
2021/10/07 04:35:43;;;;;;;133.13;7.85;;;13.70;89.70;;;;;;5092761;28;20067;-72
2021/10/07 04:38:09;;;;;;;117.05;7.68;;;13.70;89.70;;;;;;5090323;28;20472;-72
2021/10/07 04:40:36;;;;;;;280.63;9.55;;;13.70;89.60;;;;;;5088387;28;20109;-73
2021/10/07 04:43:03;;;;;;;188.80;8.40;;;13.70;89.70;;;;;;5078286;28;20071;-71
2021/10/07 04:45:29;;;;;;;163.15;6.50;;;13.70;89.70;;;;;;5082437;28;20041;-71
2021/10/07 04:47:55;;;;;;;143.80;8.57;;;13.70;89.70;;;;;;5077764;28;20040;-70
2021/10/07 04:50:20;;;;;;;223.48;8.55;;;13.60;89.40;;;;;;5085142;28;20116;-70
2021/10/07 04:52:46;;;;;;;217.20;8.07;;;13.70;89.30;;;;;;5080719;28;20099;-72
2021/10/07 04:55:14;;;;;;;279.48;10.38;;;13.70;89.20;;;;;;5076367;28;20029;-73
2021/10/07 04:57:40;;;;;;;72.72;4.00;;;13.70;89.20;;;;;;5074981;28;20021;-74
2021/10/07 05:00:07;;;;;;;148.80;5.53;;;13.70;89.10;;;;;;5093687;28;20467;-73
2021/10/07 05:02:40;;;;;;;67.75;4.13;;;13.60;89.00;;;;;;5086538;28;20028;-72
2021/10/07 05:05:07;;;;;;;173.73;6.83;;;13.70;88.90;;;;;;5088242;28;20495;-72
2021/10/07 05:07:33;;;;;;;129.48;5.18;;;13.60;88.80;;;;;;5091622;28;20360;-73
2021/10/07 05:09:59;;;;;;;294.88;8.25;;;13.60;88.80;;;;;;5082494;28;20031;-74
2021/10/07 05:12:31;;;;;;;121.63;4.93;;;13.60;88.70;;;;;;5081742;28;20069;-73
2021/10/07 05:14:56;;;;;;;400.83;10.38;;;13.60;88.70;;;;;;5081035;28;20043;-73
2021/10/07 05:17:22;;;;;;;383.98;10.25;;;13.50;88.70;;;;;;5080900;28;20024;-74
2021/10/07 05:19:50;;;;;;;168.38;6.95;;;13.60;88.80;;;;;;5085244;28;20028;-74
2021/10/07 05:22:16;;;;;;;216.02;7.90;;;13.50;88.80;;;;;;5080646;28;20139;-74
2021/10/07 05:24:42;;;;;;;329.35;9.85;;;13.50;88.80;;;;;;5086682;28;20558;-74
2021/10/07 05:27:07;;;;;;;180.63;5.30;;;13.50;88.90;;;;;;5094226;28;20028;-75
2021/10/07 05:29:33;;;;;;;188.50;6.63;;;13.50;88.90;;;;;;5095940;28;20028;-76
2021/10/07 05:31:59;;;;;;;206.32;7.28;;;13.50;88.90;;;;;;5074054;28;20073;-74
2021/10/07 05:34:24;;;;;;;269.52;7.38;;;13.50;88.70;;;;;;5078390;28;20035;-72
2021/10/07 05:36:50;;;;;;;143.80;5.35;;;13.50;88.70;;;;;;5077176;28;20064;-70
2021/10/07 05:39:16;;;;;;;166.65;8.00;;;13.50;88.70;;;;;;5086080;28;20476;-70
2021/10/07 05:41:41;;;;;;;136.07;5.13;;;13.50;88.80;;;;;;5075290;28;20085;-70
2021/10/07 05:44:09;;;;;;;118.65;4.22;;;13.50;88.80;;;;;;5079728;28;20099;-76
2021/10/07 05:46:36;;;;;;;200.23;6.57;;;13.50;88.80;;;;;;5085305;28;20044;-74
2021/10/07 05:49:02;;;;;;;167.40;6.20;;;13.50;88.80;;;;;;5082350;28;20035;-74
2021/10/07 05:51:32;;;;;;;172.02;5.55;;;13.50;88.70;;;;;;5089513;28;20028;-74
2021/10/07 05:53:57;;;;;;;203.48;6.20;;;13.50;88.60;;;;;;5094555;28;20032;-74
2021/10/07 05:56:23;;;;;;;218.27;7.07;;;13.50;88.60;;;;;;5095331;28;20027;-73
2021/10/07 05:58:51;;;;;;;158.32;5.93;;;13.50;88.60;;;;;;5080170;28;20024;-74
2021/10/07 06:01:17;;;;;;;131.73;4.78;;;13.50;88.60;;;;;;5090110;28;20551;-74
2021/10/07 06:03:43;;;;;;;262.15;8.05;;;13.50;88.60;;;;;;5079358;28;20127;-74
2021/10/07 06:06:08;;;;;;;213.98;5.90;;;13.50;88.70;;;;;;5072510;28;20040;-74
2021/10/07 06:08:36;;;;;;;167.43;5.78;;;13.50;88.70;;;;;;5085704;28;20027;-74
2021/10/07 06:11:03;;;;;;;163.57;6.30;;;13.50;88.60;;;;;;5085217;28;20478;-74
2021/10/07 06:13:30;;;;;;;79.70;3.72;;;13.50;88.70;;;;;;5072666;28;20060;-74
2021/10/07 06:15:55;;;;;;;121.15;4.95;;;13.50;88.80;;;;;;5091659;28;20501;-74
2021/10/07 06:18:21;;;;;;;119.32;4.20;;;13.40;88.70;;;;;;5084171;28;20107;-74
2021/10/07 06:20:47;;;;;;;65.15;3.17;;;13.50;88.80;;;;;;5092400;28;20417;-74
2021/10/07 06:23:13;;;;;;;32.53;2.45;;;13.50;88.70;;;;;;5092411;28;20490;-74
2021/10/07 06:25:39;;;;;;;102.00;4.07;;;13.50;88.70;;;;;;5093848;28;20039;-74
2021/10/07 06:28:06;;;;;;;184.90;7.05;;;13.50;88.70;;;;;;5093757;28;20034;-74
2021/10/07 06:30:32;;;;;;;92.32;3.90;;;13.40;88.60;;;;;;5093672;28;20107;-74
2021/10/07 06:32:58;;;;;;;86.45;5.20;;;13.50;88.80;;;;;;5090215;28;20048;-74
2021/10/07 06:35:24;;;;;;;115.10;4.97;;;13.50;89.00;;;;;;5083658;28;20039;-73
2021/10/07 06:37:50;;;;;;;117.10;4.15;;;13.40;89.10;;;;;;5091147;28;20020;-74
2021/10/07 06:40:16;;;;;;;155.02;5.28;;;13.40;89.10;;;;;;5086812;28;20541;-74
2021/10/07 06:42:43;;;;;;;114.43;5.15;;;13.40;89.20;;;;;;5087052;28;20024;-71
2021/10/07 06:45:10;;;;;;;180.25;7.20;;;13.40;89.40;;;;;;5074956;28;20136;-72
2021/10/07 06:47:36;;;;;;;162.75;5.82;;;13.50;89.60;;;;;;5074533;28;20494;-75
2021/10/07 06:50:05;;;;;;;147.15;5.65;;;13.40;89.60;;;;;;5093693;28;20063;-73
2021/10/07 06:52:30;;;;;;;186.13;7.18;;;13.40;89.60;;;;;;5093853;28;20028;-73
2021/10/07 06:54:56;;;;;;;103.00;4.47;;;13.40;89.70;;;;;;5092233;28;20111;-73
2021/10/07 06:57:22;;;;;;;126.43;5.28;;;13.50;89.90;;;;;;5093519;28;20383;-73
2021/10/07 06:59:47;;;;;;;90.22;4.93;;;13.40;89.80;;;;;;5080619;28;20399;-73
2021/10/07 07:02:13;;;;;;;103.20;3.67;;;13.40;89.90;;;;;;5091576;28;20024;-73
2021/10/07 07:04:39;;;;;;;133.05;4.40;;;13.50;89.70;;;;;;5082747;28;20032;-72
2021/10/07 07:07:04;;;;;;;210.82;6.22;;;13.40;89.50;;;;;;5074770;28;20403;-73
2021/10/07 07:09:30;;;;;;;132.18;5.05;;;13.40;89.30;;;;;;5074138;28;20033;-72
2021/10/07 07:11:56;;;;;;;176.27;5.63;;;13.50;89.50;;;;;;5085683;28;20036;-73
2021/10/07 07:14:21;;;;;;;97.95;4.20;;;13.50;89.70;;;;;;5080688;28;20036;-73
2021/10/07 07:16:47;;;;;;;186.43;6.80;;;13.50;89.70;;;;;;5091295;28;20040;-72
2021/10/07 07:19:13;;;;;;;130.40;4.68;;;13.50;89.70;;;;;;5077820;28;20024;-73
2021/10/07 07:21:38;;;;;;;224.23;6.95;;;13.50;89.80;;;;;;5093241;28;20035;-73
2021/10/07 07:24:05;;;;;;;191.23;5.90;;;13.50;89.90;;;;;;5091092;28;20020;-73
2021/10/07 07:26:35;;;;;;;62.13;3.30;;;13.50;89.90;;;;;;5093983;28;20156;-73
2021/10/07 07:29:03;;;;;;;102.85;4.45;;;13.50;90.00;;;;;;5077946;28;20020;-73
2021/10/07 07:31:29;;;;;;;99.65;4.22;;;13.50;90.00;;;;;;5084284;28;20502;-73
2021/10/07 07:33:54;;;;;;;133.18;4.68;;;13.50;90.00;;;;;;5076734;28;20115;-72
2021/10/07 07:36:24;;;;;;;182.90;5.45;;;13.50;90.10;;;;;;5084823;28;20127;-73
2021/10/07 07:38:50;;;;;;;195.15;6.03;;;13.60;90.10;;;;;;5084415;28;20074;-73
2021/10/07 07:41:17;;;;;;;205.57;5.57;;;13.50;90.00;;;;;;5079494;28;20369;-72
2021/10/07 07:43:44;;;;;;;170.90;4.90;;;13.50;90.00;;;;;;5093748;28;20395;-72
2021/10/07 07:46:10;;;;;;;84.55;3.67;;;13.50;90.00;;;;;;5077672;28;20072;-73
2021/10/07 07:48:37;;;;;;;61.92;4.30;;;13.60;90.10;;;;;;5093004;28;20024;-72
2021/10/07 07:51:03;;;;;;;61.00;3.60;;;13.60;90.10;;;;;;5090891;28;20491;-73
2021/10/07 07:53:29;;;;;;;80.10;4.60;;;13.60;90.10;;;;;;5085353;28;20029;-73
2021/10/07 07:55:55;;;;;;;99.55;4.45;;;13.60;90.10;;;;;;5085454;28;20039;-73
2021/10/07 07:58:21;;;;;;;92.00;5.47;;;13.60;90.10;;;;;;5076248;28;20107;-73
2021/10/07 08:00:47;;;;;;;91.53;6.10;;;13.60;90.20;;;;;;5082681;28;20032;-73
2021/10/07 08:03:13;;;;;;;69.88;6.10;;;13.60;90.20;;;;;;5087487;28;20043;-73
2021/10/07 08:05:39;;;;;;;118.72;6.60;;;13.60;90.20;;;;;;5085435;28;20039;-73
2021/10/07 08:08:05;;;;;;;41.33;5.60;;;13.60;90.30;;;;;;5085607;28;20040;-72
2021/10/07 08:10:32;;;;;;;79.40;7.85;;;13.60;90.40;;;;;;5086597;28;20032;-73
2021/10/07 08:12:58;;;;;;;49.90;5.78;;;13.60;90.50;;;;;;5073898;28;20032;-73
2021/10/07 08:15:24;;;;;;;115.68;8.43;;;13.60;90.50;;;;;;5085540;28;20051;-73
2021/10/07 08:17:50;;;;;;;90.93;9.10;;;13.60;90.50;;;;;;5073365;28;20464;-73
2021/10/07 08:20:16;;;;;;;54.25;7.13;;;13.70;90.60;;;;;;5085536;28;20028;-72
2021/10/07 08:22:44;;;;;;;107.60;5.97;;;13.70;90.70;;;;;;5089742;28;20479;-73
2021/10/07 08:25:10;;;;;;;170.15;6.75;;;13.60;90.50;;;;;;5079381;28;20109;-73
2021/10/07 08:27:37;;;;;;;73.95;6.20;;;13.70;90.60;;;;;;5089966;28;20020;-73
2021/10/07 08:30:05;;;;;;;118.28;6.10;;;13.70;90.70;;;;;;5091456;28;20035;-73
2021/10/07 08:32:30;;;;;;;67.40;4.88;;;13.80;90.80;;;;;;5089124;28;20028;-73
2021/10/07 08:34:56;;;;;;;56.42;5.40;;;13.70;90.70;;;;;;5091617;28;20039;-73
2021/10/07 08:37:22;;;;;;;163.82;8.80;;;13.80;90.70;;;;;;5092108;28;20539;-73
2021/10/07 08:39:48;;;;;;;88.45;6.90;;;13.80;90.90;;;;;;5087316;28;20049;-73
2021/10/07 08:42:15;;;;;;;98.03;8.27;;;13.80;90.90;;;;;;5083038;28;20400;-73
2021/10/07 08:44:43;;;;;;;116.75;6.07;;;13.80;91.00;;;;;;5087881;28;20047;-73
2021/10/07 08:47:09;;;;;;;63.20;6.28;;;13.80;91.00;;;;;;5081899;28;20361;-73
2021/10/07 08:49:38;;;;;;;106.28;6.22;;;13.90;91.00;;;;;;5077409;28;20036;-73
2021/10/07 08:52:04;;;;;;;61.85;5.47;;;13.90;91.00;;;;;;5078708;28;20041;-72
2021/10/07 08:54:33;;;;;;;61.25;6.82;;;13.80;90.90;;;;;;5079349;28;20055;-73
2021/10/07 08:57:02;;;;;;;94.00;7.13;;;13.90;91.00;;;;;;5075033;28;20047;-73
2021/10/07 08:59:29;;;;;;;65.80;6.70;;;13.90;91.00;;;;;;5091572;28;20025;-73
2021/10/07 09:01:58;;;;;;;84.50;7.10;;;13.90;91.10;;;;;;5090305;28;20114;-73
2021/10/07 09:04:28;;;;;;;48.88;6.88;;;14.00;91.20;;;;;;5078397;28;20032;-72
2021/10/07 09:07:10;;;;;;;48.45;5.90;;;14.00;91.20;;;;;;5091586;28;20111;-72
2021/10/07 09:09:41;;;;;;;40.58;5.35;;;14.00;91.20;;;;;;5079828;28;20035;-72
2021/10/07 09:12:13;;;;;;;50.13;5.05;;;14.10;91.20;;;;;;5080400;28;20499;-73
2021/10/07 09:14:41;;;;;;;83.25;6.13;;;14.10;91.20;;;;;;5087645;28;20029;-72
2021/10/07 09:17:08;;;;;;;101.68;7.30;;;14.10;91.10;;;;;;5084088;28;20024;-72
2021/10/07 09:19:39;;;;;;;53.03;6.75;;;14.10;91.10;;;;;;5087009;28;20531;-72
2021/10/07 09:22:30;;;;;;;34.05;5.80;;;14.10;91.10;;;;;;5089236;28;20079;-72
2021/10/07 09:25:00;;;;;;;27.13;6.47;;;14.20;91.20;;;;;;5080830;28;20043;-72
2021/10/07 09:27:35;;;;;;;29.17;6.72;;;14.20;91.30;;;;;;5081350;28;20036;-72
2021/10/07 09:30:05;;;;;;;19.05;5.68;;;14.20;91.30;;;;;;5079462;28;20074;-72
2021/10/07 09:32:32;;;;;;;14.25;5.72;;;14.20;91.30;;;;;;5085561;28;20038;-72
2021/10/07 09:35:03;;;;;;;21.15;5.85;;;14.20;91.30;;;;;;5083018;28;20485;-73
2021/10/07 09:37:34;;;;;;;46.20;6.35;;;14.30;91.00;;;;;;5085952;28;20035;-73
2021/10/07 09:40:11;;;;;;;18.65;5.00;;;14.20;91.20;;;;;;5079924;28;20043;-73
2021/10/07 09:42:45;;;;;;;9.43;5.28;;;14.20;90.70;;;;;;5085871;28;20168;-73
2021/10/07 09:45:23;;;;;;;20.58;6.78;;;14.30;90.80;;;;;;5084250;28;20127;-73
2021/10/07 09:47:54;;;;;;;25.95;6.10;;;14.20;90.90;;;;;;5081992;28;20028;-73
2021/10/07 09:50:27;;;;;;;26.83;6.57;;;14.30;91.00;;;;;;5094473;28;20067;-73
2021/10/07 09:53:12;;;;;;;24.92;7.07;;;14.30;91.00;;;;;;5093022;28;20383;-74
2021/10/07 09:55:40;;;;;;;20.83;6.30;;;14.30;91.10;;;;;;5079886;28;20020;-73
2021/10/07 09:58:11;;;;;;;26.70;5.82;;;14.30;91.10;;;;;;5091030;28;20473;-73
2021/10/07 10:00:39;;;;;;;16.95;6.22;;;14.30;91.00;;;;;;5093919;28;20027;-73
2021/10/07 10:03:07;;;;;;;18.23;7.00;;;14.40;91.10;;;;;;5084157;28;20407;-73
2021/10/07 10:05:35;;;;;;;15.57;6.80;;;14.40;91.10;;;;;;5088799;28;20036;-73
2021/10/07 10:08:03;;;;;;;20.23;6.65;;;14.40;91.10;;;;;;5075917;28;20025;-73
2021/10/07 10:10:29;;;;;;;29.65;6.32;;;14.50;91.20;;;;;;5080769;28;20031;-75
2021/10/07 10:12:55;;;;;;;9.18;5.65;;;14.50;91.10;;;;;;5087472;28;20040;-72
2021/10/07 10:15:21;;;;;;;23.55;7.63;;;14.50;90.70;;;;;;5088955;28;20035;-73
2021/10/07 10:17:51;;;;;;;8.43;3.88;;;14.50;90.80;;;;;;5085987;28;20025;-73
2021/10/07 10:20:29;;;;;;;10.18;5.20;;;14.50;90.60;;;;;;5089124;28;20028;-73
2021/10/07 10:23:01;;;;;;;9.43;4.88;;;14.50;90.40;;;;;;5086433;28;20028;-73
2021/10/07 10:25:29;;;;;;;11.88;6.25;;;14.50;90.00;;;;;;5089826;28;20040;-72
2021/10/07 10:28:03;;;;;;;17.02;6.57;;;14.50;90.00;;;;;;5077176;28;20028;-72
2021/10/07 10:30:30;;;;;;;15.43;8.27;;;14.50;90.20;;;;;;5089640;28;20024;-72
2021/10/07 10:32:58;;;;;;;18.63;8.25;;;14.50;90.50;;;;;;5073805;28;20036;-72
2021/10/07 10:35:41;;;;;;;12.65;7.47;;;14.50;90.70;;;;;;5089837;28;20032;-72
2021/10/07 10:38:11;;;;;;;13.48;7.88;;;14.50;90.90;;;;;;5074355;28;20024;-71
2021/10/07 10:40:38;;;;;;;15.32;8.73;;;14.60;91.00;;;;;;5076012;28;20139;-71
2021/10/07 10:43:29;;;;;;;16.65;7.88;;;14.60;91.10;;;;;;5075379;28;20086;-71
2021/10/07 10:46:01;;;;;;;13.70;7.80;;;14.70;91.20;;;;;;5085016;28;20063;-72
2021/10/07 10:48:41;;;;;;;13.40;7.50;;;14.70;91.00;;;;;;5078392;28;20024;-72
2021/10/07 10:51:15;;;;;;;11.00;6.07;;;14.70;91.00;;;;;;5090567;28;20036;-73
2021/10/07 10:53:58;;;;;;;15.38;8.93;;;14.70;90.70;;;;;;5084113;28;20024;-73
2021/10/07 10:56:24;;;;;;;17.33;9.35;;;14.80;91.00;;;;;;5082452;28;20032;-72
2021/10/07 10:58:54;;;;;;;16.30;9.00;;;14.80;90.70;;;;;;5086778;28;20040;-72
2021/10/07 11:01:19;;;;;;;19.15;10.30;;;14.80;90.80;;;;;;5073092;28;20046;-73
2021/10/07 11:03:48;;;;;;;13.80;7.90;;;14.90;90.90;;;;;;5085676;28;20028;-72
2021/10/07 11:06:13;;;;;;;15.55;8.98;;;14.80;90.70;;;;;;5072632;28;20044;-72
2021/10/07 11:08:42;;;;;;;17.25;9.85;;;14.90;90.80;;;;;;5074787;28;20020;-72
2021/10/07 11:11:29;;;;;;;24.65;10.27;;;14.90;90.90;;;;;;5072641;28;20047;-72
2021/10/07 11:13:55;;;;;;;18.98;9.82;;;15.00;91.00;;;;;;5080663;28;20130;-71
2021/10/07 11:16:21;;;;;;;19.48;10.65;;;14.90;90.90;;;;;;5073940;28;20403;-72
2021/10/07 11:18:49;;;;;;;16.95;10.20;;;15.00;91.00;;;;;;5079861;28;20074;-72
2021/10/07 11:21:17;;;;;;;18.52;9.93;;;15.00;90.90;;;;;;5074944;28;20111;-72
2021/10/07 11:23:52;;;;;;;17.23;9.50;;;15.00;90.90;;;;;;5084930;28;20040;-72
2021/10/07 11:26:19;;;;;;;18.45;10.13;;;15.00;91.00;;;;;;5073060;28;20036;-72
2021/10/07 11:28:48;;;;;;;20.25;10.77;;;15.10;90.90;;;;;;5075627;28;20078;-72
2021/10/07 11:31:16;;;;;;;19.25;9.57;;;15.10;91.00;;;;;;5080615;28;20039;-72
2021/10/07 11:33:54;;;;;;;19.23;9.05;;;15.10;91.00;;;;;;5087481;28;20056;-72
2021/10/07 11:36:23;;;;;;;15.90;9.15;;;15.10;90.70;;;;;;5080840;28;20423;-72
2021/10/07 11:38:50;;;;;;;19.77;10.63;;;15.20;90.70;;;;;;5082210;28;20115;-72
2021/10/07 11:41:20;;;;;;;17.27;10.75;;;15.10;90.70;;;;;;5081377;28;20052;-72
2021/10/07 11:43:46;;;;;;;19.42;9.68;;;15.20;90.70;;;;;;5093062;28;20115;-72
2021/10/07 11:46:15;;;;;;;18.90;10.85;;;15.20;90.60;;;;;;5077131;28;20036;-72
2021/10/07 11:48:57;;;;;;;18.70;9.90;;;15.30;90.40;;;;;;5073376;28;20387;-72
2021/10/07 11:51:28;;;;;;;22.75;10.80;;;15.30;90.20;;;;;;5088390;28;20027;-72
2021/10/07 11:53:55;;;;;;;20.40;11.13;;;15.20;90.30;;;;;;5082477;28;20466;-73
2021/10/07 11:56:24;;;;;;;20.30;10.23;;;15.20;90.50;;;;;;5074976;28;20040;-72
2021/10/07 11:58:54;;;;;;;22.27;11.45;;;15.30;90.40;;;;;;5084691;28;20090;-72
2021/10/07 12:01:22;;;;;;;23.08;11.50;;;15.30;90.50;;;;;;5075687;28;20028;-72
2021/10/07 12:03:48;;;;;;;20.30;10.68;;;15.30;90.30;;;;;;5078768;28;20031;-71
2021/10/07 12:06:16;;;;;;;24.63;11.57;;;15.30;90.40;;;;;;5090172;28;20044;-73
2021/10/07 12:08:44;;;;;;;24.88;11.30;;;15.40;90.40;;;;;;5087876;28;20024;-73
2021/10/07 12:11:16;;;;;;;24.05;11.48;;;15.40;90.40;;;;;;5098036;28;20032;-73
2021/10/07 12:13:47;;;;;;;19.27;9.95;;;15.40;90.40;;;;;;5077541;28;20028;-73
2021/10/07 12:16:24;;;;;;;24.13;12.65;;;15.50;90.40;;;;;;5091368;28;20032;-72
2021/10/07 12:18:54;;;;;;;23.58;11.40;;;15.50;90.40;;;;;;5076039;28;20024;-72
2021/10/07 12:21:20;;;;;;;19.83;10.68;;;15.50;90.40;;;;;;5073470;28;20033;-72
2021/10/07 12:24:03;;;;;;;8.15;4.32;;;15.50;90.40;;;;;;5084824;28;20396;-72
2021/10/07 12:26:46;;;;;;;22.60;10.90;;;15.50;90.10;;;;;;5071403;28;20036;-72
2021/10/07 12:29:25;;;;;;;20.60;10.45;;;15.60;90.10;;;;;;5074788;28;20487;-72
2021/10/07 12:32:14;;;;;;;21.75;12.57;;;15.50;90.10;;;;;;5088709;28;20336;-72
2021/10/07 12:34:42;;;;;;;24.80;12.00;;;15.50;90.10;;;;;;5077758;28;20387;-72
2021/10/07 12:37:11;;;;;;;21.52;11.68;;;15.60;90.10;;;;;;5079240;28;20186;-73